Time;durP1;ratioP1;P1;durP2;ratioP2;P2;SDS_P1;SDS_P2;PMS_P1;PMS_P2;Temp;Humidity;BMP_temperature;BMP_pressure;BME280_temperature;BME280_humidity;BME280_pressure;Samples;Min_cycle;Max_cycle;Signal;HPM_P1;HPM_P2
2021/09/18 00:02:10;;;;;;;53.05;41.58;;;14.80;96.50;;;;;;4861042;29;20047;-80
2021/09/18 00:04:36;;;;;;;54.08;42.90;;;14.70;96.50;;;;;;4877573;29;20460;-80
2021/09/18 00:07:02;;;;;;;54.65;43.63;;;14.70;96.60;;;;;;4859026;29;20028;-80
2021/09/18 00:09:28;;;;;;;59.85;46.17;;;14.60;96.60;;;;;;4878998;29;20064;-80
2021/09/18 00:11:54;;;;;;;60.63;45.47;;;14.60;96.70;;;;;;4879078;29;20048;-80
2021/09/18 00:14:20;;;;;;;58.63;43.88;;;14.60;96.70;;;;;;4880752;29;20580;-80
2021/09/18 00:16:46;;;;;;;59.92;44.45;;;14.50;96.80;;;;;;4848836;29;20044;-81
2021/09/18 00:19:12;;;;;;;56.25;43.08;;;14.50;96.80;;;;;;4857469;29;20078;-80
2021/09/18 00:21:38;;;;;;;55.92;43.28;;;14.50;96.90;;;;;;4897511;29;20076;-80
2021/09/18 00:24:04;;;;;;;53.97;42.42;;;14.50;96.90;;;;;;4862864;29;20055;-80
2021/09/18 00:26:33;;;;;;;56.40;44.65;;;14.40;96.90;;;;;;4880860;29;20045;-80
2021/09/18 00:29:00;;;;;;;56.00;44.33;;;14.40;96.90;;;;;;4878681;29;20052;-80
2021/09/18 00:31:26;;;;;;;57.85;44.15;;;14.40;97.20;;;;;;4875679;29;20041;-79
2021/09/18 00:33:52;;;;;;;56.88;44.00;;;14.40;97.00;;;;;;4861313;29;20087;-80
2021/09/18 00:36:18;;;;;;;57.97;44.05;;;14.40;97.00;;;;;;4866647;29;20488;-80
2021/09/18 00:38:44;;;;;;;57.58;43.05;;;14.30;97.00;;;;;;4869033;29;20029;-80
2021/09/18 00:41:09;;;;;;;55.35;43.17;;;14.30;97.00;;;;;;4879654;29;20044;-79
2021/09/18 00:43:35;;;;;;;57.80;44.17;;;14.30;97.10;;;;;;4879519;29;20064;-80
2021/09/18 00:46:01;;;;;;;59.20;45.60;;;14.20;97.10;;;;;;4895688;29;20454;-80
2021/09/18 00:48:27;;;;;;;61.95;46.88;;;14.20;97.10;;;;;;4894597;29;20370;-79
2021/09/18 00:50:53;;;;;;;62.85;47.33;;;14.20;97.20;;;;;;4863837;29;20031;-80
2021/09/18 00:53:19;;;;;;;59.80;44.65;;;14.20;97.20;;;;;;4849018;29;20769;-80
2021/09/18 00:55:44;;;;;;;56.40;43.75;;;14.20;97.30;;;;;;4859014;29;20041;-80
2021/09/18 00:58:10;;;;;;;54.33;42.55;;;14.20;97.30;;;;;;4844615;29;20121;-80
2021/09/18 01:00:36;;;;;;;52.88;40.88;;;14.10;97.30;;;;;;4860961;29;20045;-80
2021/09/18 01:03:01;;;;;;;57.55;43.50;;;14.10;97.30;;;;;;4878664;29;20136;-80
2021/09/18 01:05:30;;;;;;;56.65;44.17;;;14.10;97.20;;;;;;4863729;29;20637;-80
2021/09/18 01:07:57;;;;;;;58.78;44.13;;;14.10;97.20;;;;;;4848012;29;20108;-80
2021/09/18 01:10:23;;;;;;;58.28;44.33;;;14.00;97.20;;;;;;4894730;29;20116;-80
2021/09/18 01:12:58;;;;;;;58.25;45.38;;;14.00;97.40;;;;;;4879137;29;20020;-80
2021/09/18 01:15:25;;;;;;;62.33;46.97;;;14.00;97.30;;;;;;4896776;29;20028;-80
2021/09/18 01:17:50;;;;;;;63.20;46.28;;;14.00;97.30;;;;;;4877824;29;20465;-80
2021/09/18 01:20:16;;;;;;;56.53;43.85;;;14.00;97.40;;;;;;4862271;29;20069;-79
2021/09/18 01:22:42;;;;;;;56.58;43.85;;;13.90;97.40;;;;;;4877979;29;20094;-79
2021/09/18 01:25:08;;;;;;;63.60;46.08;;;13.90;97.40;;;;;;4870992;29;20109;-79
2021/09/18 01:27:35;;;;;;;59.72;45.35;;;13.90;97.50;;;;;;4864367;29;20447;-79
2021/09/18 01:30:00;;;;;;;58.38;44.15;;;13.80;97.70;;;;;;4861640;29;20040;-79
2021/09/18 01:32:26;;;;;;;54.83;41.80;;;13.80;97.50;;;;;;4864364;29;20106;-79
2021/09/18 01:34:51;;;;;;;59.92;45.88;;;13.80;97.60;;;;;;4860248;29;20435;-80
2021/09/18 01:37:17;;;;;;;58.33;44.33;;;13.80;97.60;;;;;;4875993;29;20047;-79
2021/09/18 01:39:43;;;;;;;56.83;41.75;;;13.70;97.60;;;;;;4895047;29;20041;-79
2021/09/18 01:42:08;;;;;;;58.75;42.38;;;13.70;97.60;;;;;;4860899;29;20041;-79
2021/09/18 01:44:34;;;;;;;55.28;42.30;;;13.70;97.60;;;;;;4878392;29;20048;-79
2021/09/18 01:46:59;;;;;;;55.95;41.50;;;13.70;97.60;;;;;;4862990;29;20036;-79
2021/09/18 01:49:27;;;;;;;51.58;41.35;;;13.60;97.60;;;;;;4859925;29;20060;-79
2021/09/18 01:51:59;;;;;;;52.83;39.83;;;13.60;97.60;;;;;;4860000;29;20458;-80
2021/09/18 01:54:28;;;;;;;53.25;40.83;;;13.60;97.60;;;;;;4892020;29;20108;-78
2021/09/18 01:56:54;;;;;;;54.20;41.78;;;13.60;97.60;;;;;;4860080;29;20091;-79
2021/09/18 01:59:19;;;;;;;53.28;41.53;;;13.60;97.60;;;;;;4841188;29;20072;-78
2021/09/18 02:01:45;;;;;;;55.88;42.97;;;13.50;97.60;;;;;;4840839;29;20045;-78
2021/09/18 02:04:10;;;;;;;60.58;44.58;;;13.50;97.60;;;;;;4837686;29;20064;-77
2021/09/18 02:06:36;;;;;;;57.58;43.22;;;13.50;97.70;;;;;;4854099;29;20523;-78
2021/09/18 02:09:02;;;;;;;55.22;43.20;;;13.50;97.70;;;;;;4851551;29;20173;-79
2021/09/18 02:11:28;;;;;;;53.33;42.22;;;13.40;97.70;;;;;;4844886;29;20084;-78
2021/09/18 02:13:54;;;;;;;58.55;45.35;;;13.40;97.80;;;;;;4876603;29;20029;-78
2021/09/18 02:16:20;;;;;;;64.78;44.55;;;13.40;97.80;;;;;;4844471;29;20490;-78
2021/09/18 02:18:45;;;;;;;59.70;44.40;;;13.40;97.80;;;;;;4858609;29;20097;-78
2021/09/18 02:21:11;;;;;;;57.58;43.13;;;13.30;97.90;;;;;;4842576;29;20151;-78
2021/09/18 02:23:37;;;;;;;62.38;43.63;;;13.30;97.90;;;;;;4859227;29;20029;-78
2021/09/18 02:26:02;;;;;;;58.05;43.58;;;13.30;97.90;;;;;;4876109;29;20458;-79
2021/09/18 02:28:28;;;;;;;60.80;44.72;;;13.20;97.90;;;;;;4859515;29;20051;-78
2021/09/18 02:30:54;;;;;;;60.15;43.83;;;13.30;98.00;;;;;;4844487;29;20039;-78
2021/09/18 02:33:19;;;;;;;62.28;43.53;;;13.20;98.20;;;;;;4858547;29;20148;-78
2021/09/18 02:35:45;;;;;;;53.33;41.38;;;13.20;98.00;;;;;;4854847;29;20065;-78
2021/09/18 02:38:11;;;;;;;51.78;41.10;;;13.20;98.00;;;;;;4853873;29;20523;-78
2021/09/18 02:40:38;;;;;;;56.53;42.80;;;13.10;98.00;;;;;;4840398;29;20052;-78
2021/09/18 02:43:04;;;;;;;53.03;41.65;;;13.10;98.00;;;;;;4841045;29;20037;-78
2021/09/18 02:45:29;;;;;;;53.15;40.17;;;13.10;98.00;;;;;;4825642;29;20042;-78
2021/09/18 02:47:56;;;;;;;54.08;40.17;;;13.00;98.00;;;;;;4867242;29;20048;-77
2021/09/18 02:50:23;;;;;;;56.45;42.67;;;13.10;98.10;;;;;;4858880;29;20238;-77
2021/09/18 02:52:49;;;;;;;50.72;40.42;;;13.00;98.10;;;;;;4851405;29;20029;-77
2021/09/18 02:55:16;;;;;;;53.17;40.25;;;13.00;98.10;;;;;;4854728;29;20048;-77
2021/09/18 02:57:42;;;;;;;55.55;41.50;;;13.00;98.10;;;;;;4859802;29;20573;-78
2021/09/18 03:00:09;;;;;;;56.03;42.63;;;13.00;98.10;;;;;;4857667;29;20065;-78
2021/09/18 03:02:36;;;;;;;50.90;38.25;;;13.00;98.10;;;;;;4850253;29;20053;-78
2021/09/18 03:05:03;;;;;;;52.03;39.45;;;13.00;98.10;;;;;;4876078;29;20800;-79
2021/09/18 03:07:28;;;;;;;53.75;40.97;;;12.90;98.00;;;;;;4843970;29;20505;-78
2021/09/18 03:09:54;;;;;;;52.43;40.87;;;12.90;98.00;;;;;;4840918;29;20029;-77
2021/09/18 03:12:19;;;;;;;55.35;41.47;;;12.90;98.00;;;;;;4841639;29;20046;-78
2021/09/18 03:14:45;;;;;;;51.25;39.92;;;12.90;98.00;;;;;;4840340;29;20046;-77
2021/09/18 03:17:11;;;;;;;50.78;40.33;;;12.90;98.10;;;;;;4858037;29;20418;-78
2021/09/18 03:19:36;;;;;;;52.85;39.17;;;12.90;98.10;;;;;;4859227;29;20075;-77
2021/09/18 03:22:02;;;;;;;56.72;41.65;;;12.80;98.10;;;;;;4840366;29;20092;-79
2021/09/18 03:24:28;;;;;;;54.17;40.65;;;12.80;98.10;;;;;;4835979;29;20054;-78
2021/09/18 03:26:53;;;;;;;53.50;41.15;;;12.80;98.10;;;;;;4853840;29;20033;-78
2021/09/18 03:29:19;;;;;;;55.17;41.67;;;12.80;98.20;;;;;;4840068;29;20387;-78
2021/09/18 03:31:45;;;;;;;56.65;42.00;;;12.80;98.20;;;;;;4858896;29;20124;-78
2021/09/18 03:34:11;;;;;;;77.95;43.92;;;12.80;98.20;;;;;;4840893;29;20044;-77
2021/09/18 03:36:36;;;;;;;75.28;48.20;;;12.80;98.20;;;;;;4841009;29;20479;-77
2021/09/18 03:39:03;;;;;;;69.30;46.10;;;12.80;98.30;;;;;;4840727;29;20033;-77
2021/09/18 03:41:28;;;;;;;65.47;45.30;;;12.80;98.30;;;;;;4857419;29;21000;-77
2021/09/18 03:43:54;;;;;;;72.50;48.05;;;12.70;98.30;;;;;;4830061;29;20082;-78
2021/09/18 03:46:20;;;;;;;71.28;46.97;;;12.70;98.30;;;;;;4835610;29;20064;-77
2021/09/18 03:48:45;;;;;;;80.20;48.03;;;12.70;98.30;;;;;;4847525;29;20143;-77
2021/09/18 03:51:11;;;;;;;96.45;47.95;;;12.80;98.40;;;;;;4855775;29;20529;-78
2021/09/18 03:53:36;;;;;;;75.03;48.10;;;12.80;98.40;;;;;;4859126;29;20047;-78
2021/09/18 03:56:02;;;;;;;91.63;49.63;;;12.80;98.40;;;;;;4837801;29;20030;-78
2021/09/18 03:58:28;;;;;;;88.40;48.25;;;12.80;98.40;;;;;;4861046;29;20143;-79
2021/09/18 04:00:53;;;;;;;142.82;50.55;;;12.80;98.40;;;;;;4876150;29;20043;-78
2021/09/18 04:03:19;;;;;;;83.85;48.85;;;12.80;98.40;;;;;;4896299;29;20063;-78
2021/09/18 04:05:44;;;;;;;75.85;47.67;;;12.80;98.50;;;;;;4895611;29;20453;-78
2021/09/18 04:08:10;;;;;;;83.20;47.67;;;12.80;98.50;;;;;;4865127;29;20450;-79
2021/09/18 04:10:37;;;;;;;71.85;45.03;;;12.90;98.50;;;;;;4897201;29;20120;-79
2021/09/18 04:13:04;;;;;;;74.25;43.00;;;12.90;98.50;;;;;;4847031;29;20089;-80
2021/09/18 04:15:30;;;;;;;86.53;44.80;;;13.00;98.50;;;;;;4861646;29;20049;-78
2021/09/18 04:17:56;;;;;;;133.48;45.28;;;13.10;98.40;;;;;;4881282;29;20047;-79
2021/09/18 04:20:22;;;;;;;79.20;45.25;;;13.10;98.40;;;;;;4895231;29;20063;-79
2021/09/18 04:22:48;;;;;;;112.20;45.78;;;13.00;98.40;;;;;;4897818;29;20112;-79
2021/09/18 04:25:13;;;;;;;96.47;45.38;;;13.10;98.40;;;;;;4865116;29;20133;-79
2021/09/18 04:27:40;;;;;;;154.65;44.78;;;13.00;98.50;;;;;;4865299;29;20036;-79
2021/09/18 04:30:07;;;;;;;91.65;44.63;;;13.00;98.50;;;;;;4880192;29;20396;-79
2021/09/18 04:32:32;;;;;;;106.22;46.85;;;12.90;98.60;;;;;;4871425;29;20040;-79
2021/09/18 04:34:58;;;;;;;66.97;46.05;;;12.80;98.70;;;;;;4831396;29;20037;-79
2021/09/18 04:37:24;;;;;;;101.70;46.78;;;12.80;98.70;;;;;;4862939;29;20037;-79
2021/09/18 04:39:50;;;;;;;177.90;49.53;;;12.80;98.80;;;;;;4854343;29;20029;-79
2021/09/18 04:42:17;;;;;;;73.38;45.10;;;12.80;98.80;;;;;;4865373;29;20123;-79
2021/09/18 04:44:43;;;;;;;76.90;44.60;;;12.70;98.90;;;;;;4878989;29;20040;-79
2021/09/18 04:47:09;;;;;;;90.70;44.73;;;12.60;98.90;;;;;;4872673;29;20418;-79
2021/09/18 04:49:36;;;;;;;95.20;44.20;;;12.60;98.90;;;;;;4863260;29;20097;-79
2021/09/18 04:52:02;;;;;;;116.57;49.15;;;12.60;99.00;;;;;;4877341;29;20500;-79
2021/09/18 04:54:27;;;;;;;165.77;48.63;;;12.50;99.00;;;;;;4875252;29;20025;-79
2021/09/18 04:56:53;;;;;;;109.47;48.33;;;12.50;99.10;;;;;;4857923;29;20060;-79
2021/09/18 04:59:19;;;;;;;91.90;46.87;;;12.40;99.10;;;;;;4879778;29;20051;-80
2021/09/18 05:01:44;;;;;;;85.87;45.10;;;12.50;99.20;;;;;;4880012;29;20481;-78
2021/09/18 05:04:10;;;;;;;132.27;52.30;;;12.50;99.20;;;;;;4865127;29;20385;-79
2021/09/18 05:06:35;;;;;;;104.05;50.65;;;12.40;99.20;;;;;;4862833;29;20237;-78
2021/09/18 05:09:01;;;;;;;143.40;51.03;;;12.40;99.20;;;;;;4880384;29;20037;-79
2021/09/18 05:11:27;;;;;;;83.55;48.45;;;12.50;99.30;;;;;;4877365;29;20417;-79
2021/09/18 05:13:53;;;;;;;113.33;49.70;;;12.50;99.30;;;;;;4878865;29;20492;-79
2021/09/18 05:16:18;;;;;;;114.03;51.23;;;12.60;99.30;;;;;;4895122;29;20068;-79
2021/09/18 05:18:44;;;;;;;144.73;53.90;;;12.60;99.30;;;;;;4863811;29;20598;-79
2021/09/18 05:21:10;;;;;;;101.00;50.63;;;12.60;99.30;;;;;;4847055;29;20052;-79
2021/09/18 05:23:35;;;;;;;158.23;52.50;;;12.60;99.40;;;;;;4863029;29;20044;-79
2021/09/18 05:26:01;;;;;;;121.53;52.67;;;12.60;99.40;;;;;;4895303;29;20500;-79
2021/09/18 05:28:26;;;;;;;112.37;52.27;;;12.60;99.40;;;;;;4860035;29;20037;-79
2021/09/18 05:30:52;;;;;;;101.60;53.57;;;12.60;99.40;;;;;;4860465;29;20065;-78
2021/09/18 05:33:18;;;;;;;112.93;54.30;;;12.60;99.40;;;;;;4861660;29;20422;-80
2021/09/18 05:35:43;;;;;;;107.23;50.83;;;12.60;99.50;;;;;;4876508;29;20044;-79
2021/09/18 05:38:09;;;;;;;108.27;50.00;;;12.60;99.50;;;;;;4845598;29;20033;-79
2021/09/18 05:40:34;;;;;;;132.17;53.33;;;12.70;99.50;;;;;;4877705;29;20052;-78
2021/09/18 05:43:00;;;;;;;150.80;54.83;;;12.70;99.50;;;;;;4891802;29;20477;-78
2021/09/18 05:45:26;;;;;;;101.87;51.47;;;12.70;99.50;;;;;;4862981;29;20501;-78
2021/09/18 05:47:51;;;;;;;117.30;52.80;;;12.80;99.50;;;;;;4878653;29;20033;-78
2021/09/18 05:50:17;;;;;;;140.07;52.27;;;12.80;99.50;;;;;;4859973;29;20045;-79
2021/09/18 05:52:43;;;;;;;117.47;51.97;;;12.80;99.50;;;;;;4881700;29;20100;-78
2021/09/18 05:55:09;;;;;;;71.03;47.22;;;12.80;99.50;;;;;;4863330;29;20470;-79
2021/09/18 05:57:35;;;;;;;127.47;51.53;;;12.80;99.50;;;;;;4863941;29;20600;-79
2021/09/18 06:00:00;;;;;;;94.17;49.27;;;12.90;99.50;;;;;;4866091;29;20562;-79
2021/09/18 06:02:26;;;;;;;88.53;49.75;;;12.90;99.50;;;;;;4848070;29;20119;-79
2021/09/18 06:04:52;;;;;;;79.78;49.42;;;13.00;99.40;;;;;;4874553;29;20040;-79
2021/09/18 06:07:17;;;;;;;74.82;49.30;;;13.00;99.40;;;;;;4849815;29;20063;-79
2021/09/18 06:09:43;;;;;;;78.68;48.17;;;13.00;99.40;;;;;;4875842;29;20039;-79
2021/09/18 06:12:09;;;;;;;71.55;48.70;;;13.10;99.40;;;;;;4857763;29;20035;-80
2021/09/18 06:14:35;;;;;;;72.07;50.08;;;13.20;99.40;;;;;;4874260;29;20033;-81
2021/09/18 06:17:00;;;;;;;72.20;49.83;;;13.30;99.40;;;;;;4876880;29;20099;-80
2021/09/18 06:19:26;;;;;;;75.15;50.25;;;13.50;99.40;;;;;;4875298;29;20397;-80
2021/09/18 06:21:52;;;;;;;76.45;50.35;;;13.70;99.30;;;;;;4894597;29;20040;-80
2021/09/18 06:24:17;;;;;;;74.75;51.03;;;13.90;99.10;;;;;;4861156;29;20047;-81
2021/09/18 06:26:45;;;;;;;77.90;49.88;;;14.00;98.90;;;;;;4890873;29;20040;-80
2021/09/18 06:29:11;;;;;;;82.20;50.28;;;14.10;98.70;;;;;;4869141;29;20036;-80
2021/09/18 06:31:37;;;;;;;70.28;49.38;;;14.10;98.60;;;;;;4894410;29;20185;-80
2021/09/18 06:34:03;;;;;;;68.88;47.95;;;14.20;98.40;;;;;;4856914;29;20209;-79
2021/09/18 06:36:30;;;;;;;68.40;46.97;;;14.20;98.30;;;;;;4887531;29;20142;-82
2021/09/18 06:38:55;;;;;;;68.53;45.95;;;14.20;98.20;;;;;;4878280;29;20123;-80
2021/09/18 06:41:21;;;;;;;69.80;44.97;;;14.20;98.10;;;;;;4877139;29;20570;-80
2021/09/18 06:43:48;;;;;;;59.55;44.20;;;14.30;98.00;;;;;;4877861;29;20870;-80
2021/09/18 06:46:15;;;;;;;63.85;43.25;;;14.50;98.00;;;;;;4891737;29;20048;-79
2021/09/18 06:48:41;;;;;;;60.70;46.13;;;14.50;97.70;;;;;;4870049;29;20583;-79
2021/09/18 06:51:06;;;;;;;62.33;44.08;;;14.70;97.70;;;;;;4890692;29;20481;-79
2021/09/18 06:53:32;;;;;;;61.58;43.88;;;14.90;97.50;;;;;;4874709;29;20044;-79
2021/09/18 06:55:58;;;;;;;62.58;46.38;;;15.00;97.20;;;;;;4859875;29;20208;-79
2021/09/18 06:58:23;;;;;;;58.05;45.85;;;15.20;96.90;;;;;;4872652;29;20561;-79
2021/09/18 07:00:49;;;;;;;62.45;45.17;;;15.40;96.70;;;;;;4858857;29;20140;-79
2021/09/18 07:03:15;;;;;;;54.80;43.67;;;15.60;96.30;;;;;;4874969;29;20512;-78
2021/09/18 07:05:40;;;;;;;52.92;42.22;;;15.90;96.00;;;;;;4861162;29;20393;-79
2021/09/18 07:08:06;;;;;;;46.92;38.88;;;16.20;95.60;;;;;;4868949;29;20077;-80
2021/09/18 07:10:32;;;;;;;46.70;38.70;;;16.50;95.10;;;;;;4874782;29;20131;-78
2021/09/18 07:12:58;;;;;;;45.28;38.63;;;16.70;94.60;;;;;;4850950;29;20056;-78
2021/09/18 07:15:24;;;;;;;47.15;38.63;;;17.00;94.20;;;;;;4860767;29;20494;-78
2021/09/18 07:17:50;;;;;;;44.15;38.15;;;17.40;93.50;;;;;;4866389;29;20040;-79
2021/09/18 07:20:16;;;;;;;46.70;38.22;;;17.80;92.90;;;;;;4865521;29;20048;-79
2021/09/18 07:22:42;;;;;;;45.83;38.15;;;18.10;91.80;;;;;;4865431;29;20037;-79
2021/09/18 07:25:08;;;;;;;45.05;36.17;;;18.30;91.40;;;;;;4866777;29;20049;-79
2021/09/18 07:27:34;;;;;;;39.97;33.47;;;18.70;91.00;;;;;;4870050;29;20028;-80
2021/09/18 07:30:00;;;;;;;36.47;31.77;;;19.30;90.40;;;;;;4896667;29;20055;-79
2021/09/18 07:32:25;;;;;;;38.20;32.75;;;19.90;88.80;;;;;;4896954;29;20036;-80
2021/09/18 07:34:51;;;;;;;33.50;28.80;;;20.50;84.90;;;;;;4872259;29;20033;-80
2021/09/18 07:37:18;;;;;;;33.03;29.40;;;20.90;83.70;;;;;;4877554;29;20029;-81
2021/09/18 07:39:44;;;;;;;32.33;28.00;;;21.50;81.40;;;;;;4877456;29;20481;-82
2021/09/18 07:42:10;;;;;;;28.33;25.42;;;22.30;78.30;;;;;;4877981;29;20052;-81
2021/09/18 07:44:35;;;;;;;26.85;24.15;;;22.90;75.70;;;;;;4858456;29;20068;-80
2021/09/18 07:47:01;;;;;;;27.48;24.52;;;23.40;73.40;;;;;;4862226;29;20029;-80
2021/09/18 07:49:28;;;;;;;27.60;24.65;;;23.90;72.10;;;;;;4862069;29;20495;-82
2021/09/18 07:51:57;;;;;;;26.52;23.77;;;24.50;69.00;;;;;;4877820;29;20037;-81
2021/09/18 07:54:23;;;;;;;26.15;23.45;;;24.80;67.80;;;;;;4878233;29;20060;-81
2021/09/18 07:56:48;;;;;;;26.80;23.90;;;24.90;66.30;;;;;;4893709;29;20104;-81
2021/09/18 07:59:14;;;;;;;27.33;24.42;;;25.10;65.50;;;;;;4878475;29;20043;-81
2021/09/18 08:01:40;;;;;;;26.60;23.80;;;25.30;64.40;;;;;;4878034;29;20100;-82
2021/09/18 08:04:07;;;;;;;29.33;26.10;;;25.50;63.60;;;;;;4878274;29;20116;-81
2021/09/18 08:06:35;;;;;;;26.17;23.52;;;25.40;64.50;;;;;;4894915;29;20029;-80
2021/09/18 08:09:03;;;;;;;30.60;27.50;;;25.50;64.60;;;;;;4894683;29;20066;-82
2021/09/18 08:11:29;;;;;;;26.63;23.88;;;25.80;63.50;;;;;;4862642;29;20076;-81
2021/09/18 08:13:55;;;;;;;27.83;25.10;;;25.70;63.50;;;;;;4894620;29;20052;-82
2021/09/18 08:16:22;;;;;;;29.35;26.25;;;25.50;63.80;;;;;;4893922;29;20029;-80
2021/09/18 08:18:47;;;;;;;28.10;25.10;;;25.90;63.80;;;;;;4885849;29;20124;-82
2021/09/18 08:21:14;;;;;;;29.58;26.60;;;26.20;61.90;;;;;;4890303;29;20125;-80
2021/09/18 08:23:43;;;;;;;32.55;28.70;;;25.80;62.10;;;;;;4869851;29;20488;-82
2021/09/18 08:26:09;;;;;;;30.50;26.70;;;25.70;62.60;;;;;;4894261;29;20041;-81
2021/09/18 08:28:36;;;;;;;28.33;25.27;;;26.10;62.20;;;;;;4877090;29;20041;-81
2021/09/18 08:31:02;;;;;;;29.77;25.67;;;26.70;61.50;;;;;;4880197;29;20130;-80
2021/09/18 08:33:28;;;;;;;34.55;28.80;;;26.70;60.00;;;;;;4880823;29;20033;-80
2021/09/18 08:35:54;;;;;;;32.95;28.73;;;27.10;59.80;;;;;;4864313;29;20048;-83
2021/09/18 08:38:23;;;;;;;31.77;28.48;;;26.90;58.50;;;;;;4874145;29;20474;-81
2021/09/18 08:40:50;;;;;;;31.98;28.42;;;26.80;58.90;;;;;;4851372;29;20037;-80
2021/09/18 08:43:18;;;;;;;32.45;28.95;;;26.70;59.60;;;;;;4879203;29;20040;-82
2021/09/18 08:45:44;;;;;;;30.80;27.60;;;26.70;58.20;;;;;;4892805;29;20037;-80
2021/09/18 08:48:09;;;;;;;32.60;29.13;;;26.80;58.40;;;;;;4880639;29;20064;-80
2021/09/18 08:50:36;;;;;;;29.63;26.45;;;27.00;58.10;;;;;;4895576;29;20742;-80
2021/09/18 08:53:02;;;;;;;30.85;27.50;;;27.10;58.40;;;;;;4843871;29;20033;-79
2021/09/18 08:55:28;;;;;;;29.63;26.52;;;27.50;57.60;;;;;;4886686;29;20029;-80
2021/09/18 08:57:54;;;;;;;28.27;25.15;;;27.70;57.20;;;;;;4848268;29;20068;-80
2021/09/18 09:00:49;;;;;;;29.52;26.42;;;27.70;56.20;;;;;;4880145;29;20040;-80
2021/09/18 09:03:23;;;;;;;27.55;24.75;;;27.30;56.90;;;;;;4862033;29;20033;-80
2021/09/18 09:05:49;;;;;;;28.25;25.17;;;27.20;57.30;;;;;;4876773;29;20033;-80
2021/09/18 09:08:21;;;;;;;27.05;24.15;;;27.10;57.50;;;;;;4846475;29;20085;-80
2021/09/18 09:10:53;;;;;;;29.88;25.75;;;27.30;58.20;;;;;;4861522;29;20025;-80
2021/09/18 09:13:22;;;;;;;30.23;26.33;;;27.20;57.30;;;;;;4869650;29;20496;-81
2021/09/18 09:15:53;;;;;;;30.95;27.60;;;27.20;57.60;;;;;;4879897;29;20040;-79
2021/09/18 09:18:24;;;;;;;34.45;30.92;;;27.10;57.30;;;;;;4896981;29;20035;-83
2021/09/18 09:21:12;;;;;;;28.38;25.08;;;27.20;57.20;;;;;;4864904;29;20040;-81
2021/09/18 09:23:38;;;;;;;28.55;25.58;;;27.50;57.10;;;;;;4880479;29;20133;-80
2021/09/18 09:26:04;;;;;;;27.42;24.48;;;27.60;57.10;;;;;;4895978;29;20037;-80
2021/09/18 09:28:36;;;;;;;23.30;20.67;;;27.60;57.20;;;;;;4897496;29;20046;-80
2021/09/18 09:31:14;;;;;;;25.10;22.42;;;27.70;56.50;;;;;;4879666;29;20175;-82
2021/09/18 09:34:18;;;;;;;25.80;21.73;;;28.00;56.50;;;;;;4878521;29;20073;-79
2021/09/18 09:36:50;;;;;;;26.25;23.45;;;28.00;55.40;;;;;;4864772;29;20061;-80
2021/09/18 09:39:24;;;;;;;25.52;22.85;;;27.90;55.20;;;;;;4879074;29;20052;-81
2021/09/18 09:41:52;;;;;;;24.95;22.45;;;27.60;56.10;;;;;;4896009;29;20039;-80
2021/09/18 09:44:20;;;;;;;28.27;24.40;;;27.80;57.30;;;;;;4879725;29;20033;-81
2021/09/18 09:47:07;;;;;;;24.70;22.10;;;27.80;55.40;;;;;;4896136;29;20481;-80
2021/09/18 09:49:42;;;;;;;24.63;22.02;;;27.30;56.20;;;;;;4896776;29;20029;-80
2021/09/18 09:52:17;;;;;;;22.35;20.05;;;27.20;56.90;;;;;;4896085;29;20088;-80
2021/09/18 09:54:43;;;;;;;22.55;20.25;;;27.90;57.90;;;;;;4879655;29;20037;-80
2021/09/18 09:57:11;;;;;;;21.77;19.52;;;28.80;56.40;;;;;;4895274;29;20056;-79
2021/09/18 09:59:37;;;;;;;20.75;18.65;;;29.30;54.10;;;;;;4878735;29;20028;-80
2021/09/18 10:02:05;;;;;;;19.83;17.83;;;29.30;51.40;;;;;;4863098;29;20044;-81
2021/09/18 10:04:31;;;;;;;18.92;16.98;;;28.70;53.70;;;;;;4879380;29;20031;-79
2021/09/18 10:06:57;;;;;;;20.95;19.05;;;28.90;54.00;;;;;;4895658;29;20033;-80
2021/09/18 10:09:23;;;;;;;25.13;20.92;;;28.80;52.60;;;;;;4878436;29;20401;-79
2021/09/18 10:11:51;;;;;;;19.50;17.50;;;28.50;52.00;;;;;;4882664;29;20594;-81
2021/09/18 10:14:24;;;;;;;18.38;16.20;;;28.00;53.30;;;;;;4890159;29;20040;-78
2021/09/18 10:16:53;;;;;;;19.60;15.70;;;27.70;53.20;;;;;;4876614;29;20037;-77
2021/09/18 10:19:31;;;;;;;14.90;13.38;;;27.40;54.80;;;;;;4884365;29;20047;-76
2021/09/18 10:24:42;;;;;;;15.07;12.57;;;28.00;53.50;;;;;;4862176;29;20142;-78
2021/09/18 10:27:23;;;;;;;13.18;11.88;;;28.20;51.60;;;;;;4844175;29;20136;-78
2021/09/18 10:29:50;;;;;;;13.00;8.52;;;28.30;50.90;;;;;;4873538;29;20036;-77
2021/09/18 10:32:18;;;;;;;10.70;8.30;;;28.40;49.70;;;;;;4844595;29;20124;-77
2021/09/18 10:34:44;;;;;;;7.60;6.53;;;28.50;49.50;;;;;;4885931;29;20108;-79
2021/09/18 10:37:32;;;;;;;8.82;6.57;;;28.70;50.10;;;;;;4852688;29;20086;-79
2021/09/18 10:40:09;;;;;;;8.27;6.57;;;29.20;48.90;;;;;;4888526;29;20505;-79
2021/09/18 10:42:37;;;;;;;7.70;6.95;;;29.60;47.90;;;;;;4878299;29;20036;-80
2021/09/18 10:45:05;;;;;;;8.35;6.43;;;29.40;46.40;;;;;;4871269;29;20037;-80
2021/09/18 10:47:44;;;;;;;4.65;4.20;;;29.00;46.00;;;;;;4856963;29;20061;-79
2021/09/18 10:50:22;;;;;;;6.07;5.55;;;28.50;47.60;;;;;;4878493;29;20024;-78
2021/09/18 10:53:03;;;;;;;7.85;5.70;;;28.50;48.20;;;;;;4866983;29;20171;-79
2021/09/18 10:55:30;;;;;;;6.40;5.80;;;28.70;48.90;;;;;;4866769;29;20446;-79
2021/09/18 10:57:56;;;;;;;7.63;6.82;;;28.80;48.50;;;;;;4871299;29;20056;-78
2021/09/18 11:00:25;;;;;;;9.13;7.78;;;28.50;47.60;;;;;;4867672;29;20035;-79
2021/09/18 11:03:02;;;;;;;9.27;7.78;;;28.20;48.20;;;;;;4893410;29;20033;-78
2021/09/18 11:05:28;;;;;;;12.95;11.15;;;28.10;49.80;;;;;;4877966;29;20036;-79
2021/09/18 11:07:58;;;;;;;11.55;10.35;;;27.40;48.80;;;;;;4878417;29;20385;-78
2021/09/18 11:10:24;;;;;;;10.95;9.32;;;26.80;51.30;;;;;;4877327;29;20279;-79
2021/09/18 11:13:08;;;;;;;10.50;9.45;;;26.40;52.30;;;;;;4875690;29;20485;-78
2021/09/18 11:15:43;;;;;;;11.50;8.30;;;26.20;52.70;;;;;;4862643;29;20451;-79
2021/09/18 11:18:14;;;;;;;9.02;7.55;;;26.20;52.70;;;;;;4877216;29;20045;-79
2021/09/18 11:20:40;;;;;;;7.68;6.20;;;25.90;53.10;;;;;;4878484;29;20476;-80
2021/09/18 11:23:06;;;;;;;5.53;3.95;;;25.70;54.00;;;;;;4876701;29;20036;-79
2021/09/18 11:25:36;;;;;;;5.05;3.75;;;26.00;53.10;;;;;;4878042;29;20037;-78
2021/09/18 11:28:10;;;;;;;3.03;2.60;;;26.30;52.60;;;;;;4895141;29;20024;-78
2021/09/18 11:30:50;;;;;;;4.35;2.65;;;26.60;51.70;;;;;;4894885;29;20107;-80
2021/09/18 11:33:17;;;;;;;2.30;2.10;;;27.00;51.10;;;;;;4892818;29;20035;-79
2021/09/18 11:35:55;;;;;;;2.60;2.03;;;26.70;49.80;;;;;;4895166;29;20072;-79
2021/09/18 11:38:29;;;;;;;2.22;1.73;;;26.90;50.20;;;;;;4893903;29;20072;-79
2021/09/18 11:41:14;;;;;;;5.72;3.35;;;27.20;49.40;;;;;;4895548;29;20060;-79
2021/09/18 11:43:42;;;;;;;3.38;2.65;;;26.80;49.10;;;;;;4877030;29;20025;-78
2021/09/18 11:46:10;;;;;;;4.22;3.83;;;26.70;50.10;;;;;;4877324;29;20430;-79
2021/09/18 11:48:36;;;;;;;4.18;3.13;;;26.40;49.70;;;;;;4891478;29;20210;-78
2021/09/18 11:51:05;;;;;;;5.60;4.70;;;26.10;50.70;;;;;;4876649;29;20039;-77
2021/09/18 11:53:31;;;;;;;9.00;4.82;;;26.10;51.30;;;;;;4893693;29;20028;-79
2021/09/18 11:55:57;;;;;;;5.57;4.63;;;26.00;50.80;;;;;;4874271;29;20040;-77
2021/09/18 11:58:32;;;;;;;6.38;4.15;;;25.60;51.70;;;;;;4876116;29;20065;-77
2021/09/18 12:01:04;;;;;;;5.82;4.50;;;25.40;51.80;;;;;;4862282;29;20041;-77
2021/09/18 12:03:40;;;;;;;6.18;4.57;;;25.20;52.60;;;;;;4877843;29;20052;-77
2021/09/18 12:06:10;;;;;;;4.15;3.53;;;25.20;52.90;;;;;;4894631;29;20065;-79
2021/09/18 12:08:37;;;;;;;5.18;3.75;;;25.40;52.90;;;;;;4878409;29;20136;-78
2021/09/18 12:11:09;;;;;;;2.78;2.42;;;25.60;52.40;;;;;;4863364;29;20025;-80
2021/09/18 12:13:36;;;;;;;3.43;2.13;;;25.50;51.30;;;;;;4881426;29;20042;-77
2021/09/18 12:16:03;;;;;;;2.90;1.75;;;25.40;50.70;;;;;;4853958;29;20371;-79
2021/09/18 12:18:40;;;;;;;3.17;2.78;;;25.50;50.60;;;;;;4879971;29;20029;-78
2021/09/18 12:21:10;;;;;;;2.70;2.10;;;25.40;51.00;;;;;;4897424;29;20056;-78
2021/09/18 12:23:44;;;;;;;3.03;2.30;;;25.40;52.00;;;;;;4896690;29;20040;-78
2021/09/18 12:26:10;;;;;;;3.33;2.88;;;25.50;52.50;;;;;;4897400;29;20040;-78
2021/09/18 12:28:36;;;;;;;4.90;3.42;;;25.70;51.20;;;;;;4880580;29;20028;-79
2021/09/18 12:31:21;;;;;;;3.97;3.45;;;25.90;51.00;;;;;;4880063;29;20029;-79
2021/09/18 12:33:50;;;;;;;4.15;3.78;;;26.00;50.60;;;;;;4882582;29;20025;-78